sensor_id;sensor_type;location;lat;lon;timestamp;P1;durP1;ratioP1;P2;durP2;ratioP2
10347;SDS011;5220;43.192;23.284;2023-10-08T00:01:39;3.63;;;2.38;;
10347;SDS011;5220;43.192;23.284;2023-10-08T00:04:07;2.70;;;2.20;;
10347;SDS011;5220;43.192;23.284;2023-10-08T00:06:36;3.15;;;2.17;;
10347;SDS011;5220;43.192;23.284;2023-10-08T00:09:04;5.20;;;2.35;;
10347;SDS011;5220;43.192;23.284;2023-10-08T00:11:34;4.70;;;2.10;;
10347;SDS011;5220;43.192;23.284;2023-10-08T00:14:01;2.70;;;2.05;;
10347;SDS011;5220;43.192;23.284;2023-10-08T00:16:30;4.38;;;2.13;;
10347;SDS011;5220;43.192;23.284;2023-10-08T00:19:00;1.83;;;1.63;;
10347;SDS011;5220;43.192;23.284;2023-10-08T00:21:33;2.35;;;1.77;;
10347;SDS011;5220;43.192;23.284;2023-10-08T00:24:01;2.67;;;1.77;;
10347;SDS011;5220;43.192;23.284;2023-10-08T00:26:31;18.63;;;2.67;;
10347;SDS011;5220;43.192;23.284;2023-10-08T00:29:01;4.20;;;2.00;;
10347;SDS011;5220;43.192;23.284;2023-10-08T00:31:31;6.43;;;2.10;;
10347;SDS011;5220;43.192;23.284;2023-10-08T00:34:04;4.93;;;2.13;;
10347;SDS011;5220;43.192;23.284;2023-10-08T00:36:36;2.17;;;1.73;;
10347;SDS011;5220;43.192;23.284;2023-10-08T00:39:04;2.22;;;1.80;;
10347;SDS011;5220;43.192;23.284;2023-10-08T00:41:34;3.53;;;2.00;;
10347;SDS011;5220;43.192;23.284;2023-10-08T00:44:06;2.83;;;2.00;;
10347;SDS011;5220;43.192;23.284;2023-10-08T00:46:33;3.05;;;2.00;;
10347;SDS011;5220;43.192;23.284;2023-10-08T00:49:09;3.67;;;2.25;;
10347;SDS011;5220;43.192;23.284;2023-10-08T00:51:49;3.10;;;2.10;;
10347;SDS011;5220;43.192;23.284;2023-10-08T00:54:28;4.80;;;2.13;;
10347;SDS011;5220;43.192;23.284;2023-10-08T00:56:58;2.30;;;2.10;;
10347;SDS011;5220;43.192;23.284;2023-10-08T00:59:29;2.65;;;1.90;;
10347;SDS011;5220;43.192;23.284;2023-10-08T01:02:02;2.83;;;1.98;;
10347;SDS011;5220;43.192;23.284;2023-10-08T01:04:34;2.40;;;2.00;;
10347;SDS011;5220;43.192;23.284;2023-10-08T01:07:03;2.30;;;1.80;;
10347;SDS011;5220;43.192;23.284;2023-10-08T01:09:38;3.28;;;1.85;;
10347;SDS011;5220;43.192;23.284;2023-10-08T01:12:08;2.38;;;1.80;;
10347;SDS011;5220;43.192;23.284;2023-10-08T01:14:38;2.33;;;1.77;;
10347;SDS011;5220;43.192;23.284;2023-10-08T01:17:07;4.18;;;1.90;;
10347;SDS011;5220;43.192;23.284;2023-10-08T01:19:36;2.78;;;1.80;;
10347;SDS011;5220;43.192;23.284;2023-10-08T01:22:07;2.65;;;2.10;;
10347;SDS011;5220;43.192;23.284;2023-10-08T01:24:38;2.60;;;1.80;;
10347;SDS011;5220;43.192;23.284;2023-10-08T01:27:05;2.42;;;1.80;;
10347;SDS011;5220;43.192;23.284;2023-10-08T01:29:36;2.10;;;1.90;;
10347;SDS011;5220;43.192;23.284;2023-10-08T01:32:03;2.50;;;1.98;;
10347;SDS011;5220;43.192;23.284;2023-10-08T01:34:35;2.38;;;1.88;;
10347;SDS011;5220;43.192;23.284;2023-10-08T01:37:02;2.30;;;1.95;;
10347;SDS011;5220;43.192;23.284;2023-10-08T01:39:31;3.58;;;2.20;;
10347;SDS011;5220;43.192;23.284;2023-10-08T01:41:58;2.97;;;2.00;;
10347;SDS011;5220;43.192;23.284;2023-10-08T01:44:25;2.85;;;1.92;;
10347;SDS011;5220;43.192;23.284;2023-10-08T01:46:52;4.28;;;1.92;;
10347;SDS011;5220;43.192;23.284;2023-10-08T01:49:22;2.53;;;2.03;;
10347;SDS011;5220;43.192;23.284;2023-10-08T01:51:54;2.30;;;1.80;;
10347;SDS011;5220;43.192;23.284;2023-10-08T01:54:21;3.25;;;2.28;;
10347;SDS011;5220;43.192;23.284;2023-10-08T01:56:52;3.80;;;2.10;;
10347;SDS011;5220;43.192;23.284;2023-10-08T01:59:19;3.25;;;2.22;;
10347;SDS011;5220;43.192;23.284;2023-10-08T02:01:45;3.03;;;2.15;;
10347;SDS011;5220;43.192;23.284;2023-10-08T02:04:13;3.75;;;2.03;;
10347;SDS011;5220;43.192;23.284;2023-10-08T02:06:41;5.18;;;2.03;;
10347;SDS011;5220;43.192;23.284;2023-10-08T02:09:10;3.13;;;2.13;;
10347;SDS011;5220;43.192;23.284;2023-10-08T02:11:42;3.30;;;2.10;;
10347;SDS011;5220;43.192;23.284;2023-10-08T02:14:11;2.40;;;1.90;;
10347;SDS011;5220;43.192;23.284;2023-10-08T02:16:40;3.95;;;2.03;;
10347;SDS011;5220;43.192;23.284;2023-10-08T02:19:07;2.78;;;2.00;;
10347;SDS011;5220;43.192;23.284;2023-10-08T02:21:35;3.55;;;2.10;;
10347;SDS011;5220;43.192;23.284;2023-10-08T02:24:03;3.58;;;2.22;;
10347;SDS011;5220;43.192;23.284;2023-10-08T02:26:32;3.17;;;2.10;;
10347;SDS011;5220;43.192;23.284;2023-10-08T02:28:59;3.33;;;2.33;;
10347;SDS011;5220;43.192;23.284;2023-10-08T02:31:27;3.15;;;2.35;;
10347;SDS011;5220;43.192;23.284;2023-10-08T02:33:54;2.63;;;2.20;;
10347;SDS011;5220;43.192;23.284;2023-10-08T02:36:24;4.75;;;2.63;;
10347;SDS011;5220;43.192;23.284;2023-10-08T02:38:50;5.03;;;2.63;;
10347;SDS011;5220;43.192;23.284;2023-10-08T02:41:17;2.92;;;2.00;;
10347;SDS011;5220;43.192;23.284;2023-10-08T02:43:44;3.20;;;2.53;;
10347;SDS011;5220;43.192;23.284;2023-10-08T02:46:11;5.68;;;2.35;;
10347;SDS011;5220;43.192;23.284;2023-10-08T02:48:41;3.15;;;2.53;;
10347;SDS011;5220;43.192;23.284;2023-10-08T02:51:08;3.03;;;2.25;;
10347;SDS011;5220;43.192;23.284;2023-10-08T02:53:39;2.95;;;2.30;;
10347;SDS011;5220;43.192;23.284;2023-10-08T02:56:07;4.80;;;2.85;;
10347;SDS011;5220;43.192;23.284;2023-10-08T02:58:38;5.50;;;2.60;;
10347;SDS011;5220;43.192;23.284;2023-10-08T03:01:05;3.63;;;2.45;;
10347;SDS011;5220;43.192;23.284;2023-10-08T03:03:37;3.53;;;2.58;;
10347;SDS011;5220;43.192;23.284;2023-10-08T03:06:06;3.80;;;2.60;;
10347;SDS011;5220;43.192;23.284;2023-10-08T03:08:36;4.70;;;2.47;;
10347;SDS011;5220;43.192;23.284;2023-10-08T03:11:05;4.90;;;2.42;;
10347;SDS011;5220;43.192;23.284;2023-10-08T03:13:41;3.58;;;2.60;;
10347;SDS011;5220;43.192;23.284;2023-10-08T03:16:11;5.63;;;2.58;;
10347;SDS011;5220;43.192;23.284;2023-10-08T03:18:39;3.58;;;2.70;;
10347;SDS011;5220;43.192;23.284;2023-10-08T03:21:09;4.10;;;2.63;;
10347;SDS011;5220;43.192;23.284;2023-10-08T03:23:46;3.53;;;2.40;;
10347;SDS011;5220;43.192;23.284;2023-10-08T03:26:15;3.83;;;2.50;;
10347;SDS011;5220;43.192;23.284;2023-10-08T03:28:59;4.68;;;2.70;;
10347;SDS011;5220;43.192;23.284;2023-10-08T03:31:33;3.63;;;2.45;;
10347;SDS011;5220;43.192;23.284;2023-10-08T03:34:15;3.78;;;2.38;;
10347;SDS011;5220;43.192;23.284;2023-10-08T03:36:45;4.03;;;2.50;;
10347;SDS011;5220;43.192;23.284;2023-10-08T03:39:14;5.18;;;2.90;;
10347;SDS011;5220;43.192;23.284;2023-10-08T03:41:43;5.38;;;2.63;;
10347;SDS011;5220;43.192;23.284;2023-10-08T03:44:23;5.53;;;3.03;;
10347;SDS011;5220;43.192;23.284;2023-10-08T03:46:50;3.95;;;2.70;;
10347;SDS011;5220;43.192;23.284;2023-10-08T03:49:17;3.35;;;2.63;;
10347;SDS011;5220;43.192;23.284;2023-10-08T03:51:53;4.10;;;2.78;;
10347;SDS011;5220;43.192;23.284;2023-10-08T03:54:22;4.05;;;2.90;;
10347;SDS011;5220;43.192;23.284;2023-10-08T03:56:55;3.20;;;2.72;;
10347;SDS011;5220;43.192;23.284;2023-10-08T03:59:22;3.75;;;2.92;;
10347;SDS011;5220;43.192;23.284;2023-10-08T04:01:56;7.30;;;3.10;;
10347;SDS011;5220;43.192;23.284;2023-10-08T04:04:35;5.32;;;3.17;;
10347;SDS011;5220;43.192;23.284;2023-10-08T04:07:17;5.07;;;3.38;;
10347;SDS011;5220;43.192;23.284;2023-10-08T04:09:53;5.35;;;3.15;;
10347;SDS011;5220;43.192;23.284;2023-10-08T04:12:41;5.15;;;2.85;;
10347;SDS011;5220;43.192;23.284;2023-10-08T04:15:09;4.53;;;3.08;;
10347;SDS011;5220;43.192;23.284;2023-10-08T04:17:37;4.97;;;2.92;;
10347;SDS011;5220;43.192;23.284;2023-10-08T04:20:10;5.88;;;3.03;;
10347;SDS011;5220;43.192;23.284;2023-10-08T04:22:57;3.50;;;2.60;;
10347;SDS011;5220;43.192;23.284;2023-10-08T04:25:25;4.57;;;3.15;;
10347;SDS011;5220;43.192;23.284;2023-10-08T04:27:53;6.15;;;3.03;;
10347;SDS011;5220;43.192;23.284;2023-10-08T04:30:23;4.00;;;3.13;;
10347;SDS011;5220;43.192;23.284;2023-10-08T04:32:57;6.38;;;3.15;;
10347;SDS011;5220;43.192;23.284;2023-10-08T04:35:24;6.28;;;3.20;;
10347;SDS011;5220;43.192;23.284;2023-10-08T04:37:52;5.97;;;3.67;;
10347;SDS011;5220;43.192;23.284;2023-10-08T04:40:20;5.82;;;3.53;;
10347;SDS011;5220;43.192;23.284;2023-10-08T04:42:49;4.43;;;3.03;;
10347;SDS011;5220;43.192;23.284;2023-10-08T04:45:17;6.43;;;3.20;;
10347;SDS011;5220;43.192;23.284;2023-10-08T04:47:51;4.15;;;3.00;;
10347;SDS011;5220;43.192;23.284;2023-10-08T04:50:19;8.32;;;3.20;;
10347;SDS011;5220;43.192;23.284;2023-10-08T04:52:46;8.75;;;3.30;;
10347;SDS011;5220;43.192;23.284;2023-10-08T04:55:24;5.63;;;3.58;;
10347;SDS011;5220;43.192;23.284;2023-10-08T04:57:54;6.90;;;3.45;;
10347;SDS011;5220;43.192;23.284;2023-10-08T05:00:21;5.82;;;3.20;;
10347;SDS011;5220;43.192;23.284;2023-10-08T05:03:06;7.57;;;3.75;;
10347;SDS011;5220;43.192;23.284;2023-10-08T05:05:39;6.25;;;3.80;;
10347;SDS011;5220;43.192;23.284;2023-10-08T05:08:20;6.45;;;3.78;;
10347;SDS011;5220;43.192;23.284;2023-10-08T05:10:59;5.30;;;3.47;;
10347;SDS011;5220;43.192;23.284;2023-10-08T05:13:40;6.10;;;3.17;;
10347;SDS011;5220;43.192;23.284;2023-10-08T05:16:21;7.20;;;3.50;;
10347;SDS011;5220;43.192;23.284;2023-10-08T05:19:01;5.78;;;3.33;;
10347;SDS011;5220;43.192;23.284;2023-10-08T05:21:51;11.48;;;3.70;;
10347;SDS011;5220;43.192;23.284;2023-10-08T05:24:27;9.38;;;4.00;;
10347;SDS011;5220;43.192;23.284;2023-10-08T05:27:05;13.20;;;3.67;;
10347;SDS011;5220;43.192;23.284;2023-10-08T05:29:49;6.43;;;3.25;;
10347;SDS011;5220;43.192;23.284;2023-10-08T05:32:39;6.70;;;3.45;;
10347;SDS011;5220;43.192;23.284;2023-10-08T05:35:29;5.53;;;3.25;;
10347;SDS011;5220;43.192;23.284;2023-10-08T05:38:15;5.18;;;3.40;;
10347;SDS011;5220;43.192;23.284;2023-10-08T05:40:47;5.55;;;3.55;;
10347;SDS011;5220;43.192;23.284;2023-10-08T05:43:54;5.72;;;3.83;;
10347;SDS011;5220;43.192;23.284;2023-10-08T05:46:34;6.60;;;3.97;;
10347;SDS011;5220;43.192;23.284;2023-10-08T05:49:16;10.75;;;3.88;;
10347;SDS011;5220;43.192;23.284;2023-10-08T05:52:03;10.27;;;3.47;;
10347;SDS011;5220;43.192;23.284;2023-10-08T05:54:47;10.13;;;4.10;;
10347;SDS011;5220;43.192;23.284;2023-10-08T05:57:39;9.55;;;4.22;;
10347;SDS011;5220;43.192;23.284;2023-10-08T06:00:10;6.45;;;3.72;;
10347;SDS011;5220;43.192;23.284;2023-10-08T06:02:55;7.78;;;3.65;;
10347;SDS011;5220;43.192;23.284;2023-10-08T06:05:35;5.65;;;3.67;;
10347;SDS011;5220;43.192;23.284;2023-10-08T06:08:11;6.40;;;3.33;;
10347;SDS011;5220;43.192;23.284;2023-10-08T06:10:38;6.65;;;3.97;;
10347;SDS011;5220;43.192;23.284;2023-10-08T06:13:21;5.13;;;3.83;;
10347;SDS011;5220;43.192;23.284;2023-10-08T06:16:11;4.57;;;3.15;;
10347;SDS011;5220;43.192;23.284;2023-10-08T06:18:56;12.15;;;4.38;;
10347;SDS011;5220;43.192;23.284;2023-10-08T06:21:21;5.20;;;3.25;;
10347;SDS011;5220;43.192;23.284;2023-10-08T06:23:48;6.18;;;3.78;;
10347;SDS011;5220;43.192;23.284;2023-10-08T06:26:19;7.53;;;4.20;;
10347;SDS011;5220;43.192;23.284;2023-10-08T06:28:50;5.07;;;3.40;;
10347;SDS011;5220;43.192;23.284;2023-10-08T06:31:23;5.88;;;3.70;;
10347;SDS011;5220;43.192;23.284;2023-10-08T06:33:51;5.90;;;4.15;;
10347;SDS011;5220;43.192;23.284;2023-10-08T06:36:18;8.88;;;3.78;;
10347;SDS011;5220;43.192;23.284;2023-10-08T06:38:49;10.18;;;4.05;;
10347;SDS011;5220;43.192;23.284;2023-10-08T06:41:16;5.75;;;3.40;;
10347;SDS011;5220;43.192;23.284;2023-10-08T06:43:44;5.78;;;3.40;;
10347;SDS011;5220;43.192;23.284;2023-10-08T06:46:14;6.93;;;2.88;;
10347;SDS011;5220;43.192;23.284;2023-10-08T06:48:45;8.60;;;3.60;;
10347;SDS011;5220;43.192;23.284;2023-10-08T06:51:14;9.55;;;3.47;;
10347;SDS011;5220;43.192;23.284;2023-10-08T06:53:43;6.43;;;3.47;;
10347;SDS011;5220;43.192;23.284;2023-10-08T06:56:10;5.65;;;3.53;;
10347;SDS011;5220;43.192;23.284;2023-10-08T06:58:37;7.35;;;3.60;;
10347;SDS011;5220;43.192;23.284;2023-10-08T07:01:04;8.05;;;3.80;;
10347;SDS011;5220;43.192;23.284;2023-10-08T07:03:33;5.25;;;3.25;;
10347;SDS011;5220;43.192;23.284;2023-10-08T07:06:04;8.07;;;4.28;;
10347;SDS011;5220;43.192;23.284;2023-10-08T07:08:42;8.70;;;3.92;;
10347;SDS011;5220;43.192;23.284;2023-10-08T07:11:11;6.43;;;3.70;;
10347;SDS011;5220;43.192;23.284;2023-10-08T07:13:39;5.88;;;3.97;;
10347;SDS011;5220;43.192;23.284;2023-10-08T07:16:07;7.35;;;4.20;;
10347;SDS011;5220;43.192;23.284;2023-10-08T07:18:36;6.88;;;3.78;;
10347;SDS011;5220;43.192;23.284;2023-10-08T07:21:04;7.60;;;3.85;;
10347;SDS011;5220;43.192;23.284;2023-10-08T07:23:37;4.50;;;3.45;;
10347;SDS011;5220;43.192;23.284;2023-10-08T07:26:21;20.55;;;4.55;;
10347;SDS011;5220;43.192;23.284;2023-10-08T07:28:49;7.88;;;3.97;;
10347;SDS011;5220;43.192;23.284;2023-10-08T07:31:17;8.07;;;4.05;;
10347;SDS011;5220;43.192;23.284;2023-10-08T07:33:46;9.85;;;3.65;;
10347;SDS011;5220;43.192;23.284;2023-10-08T07:36:22;4.18;;;3.47;;
10347;SDS011;5220;43.192;23.284;2023-10-08T07:38:50;6.45;;;3.53;;
10347;SDS011;5220;43.192;23.284;2023-10-08T07:41:17;6.63;;;3.63;;
10347;SDS011;5220;43.192;23.284;2023-10-08T07:43:45;6.93;;;3.72;;
10347;SDS011;5220;43.192;23.284;2023-10-08T07:46:21;7.20;;;5.07;;
10347;SDS011;5220;43.192;23.284;2023-10-08T07:48:48;9.90;;;7.18;;
10347;SDS011;5220;43.192;23.284;2023-10-08T07:51:15;5.35;;;4.05;;
10347;SDS011;5220;43.192;23.284;2023-10-08T07:53:48;8.25;;;5.18;;
10347;SDS011;5220;43.192;23.284;2023-10-08T07:56:19;6.53;;;4.00;;
10347;SDS011;5220;43.192;23.284;2023-10-08T07:58:46;7.60;;;4.72;;
10347;SDS011;5220;43.192;23.284;2023-10-08T08:01:13;8.23;;;4.70;;
10347;SDS011;5220;43.192;23.284;2023-10-08T08:03:40;5.40;;;4.47;;
10347;SDS011;5220;43.192;23.284;2023-10-08T08:06:08;13.77;;;4.30;;
10347;SDS011;5220;43.192;23.284;2023-10-08T08:08:36;6.68;;;4.47;;
10347;SDS011;5220;43.192;23.284;2023-10-08T08:11:05;5.45;;;3.97;;
10347;SDS011;5220;43.192;23.284;2023-10-08T08:13:37;5.78;;;4.28;;
10347;SDS011;5220;43.192;23.284;2023-10-08T08:16:04;5.53;;;3.83;;
10347;SDS011;5220;43.192;23.284;2023-10-08T08:18:42;7.13;;;4.30;;
10347;SDS011;5220;43.192;23.284;2023-10-08T08:21:09;6.22;;;4.80;;
10347;SDS011;5220;43.192;23.284;2023-10-08T08:23:39;7.85;;;4.22;;
10347;SDS011;5220;43.192;23.284;2023-10-08T08:26:08;5.22;;;4.05;;
10347;SDS011;5220;43.192;23.284;2023-10-08T08:28:39;5.32;;;4.18;;
10347;SDS011;5220;43.192;23.284;2023-10-08T08:31:06;5.72;;;3.70;;
10347;SDS011;5220;43.192;23.284;2023-10-08T08:33:38;7.38;;;3.90;;
10347;SDS011;5220;43.192;23.284;2023-10-08T08:36:18;5.10;;;3.67;;
10347;SDS011;5220;43.192;23.284;2023-10-08T08:38:46;5.88;;;3.85;;
10347;SDS011;5220;43.192;23.284;2023-10-08T08:41:15;7.55;;;4.72;;
10347;SDS011;5220;43.192;23.284;2023-10-08T08:43:44;9.18;;;4.22;;
10347;SDS011;5220;43.192;23.284;2023-10-08T08:46:22;5.57;;;4.05;;
10347;SDS011;5220;43.192;23.284;2023-10-08T08:48:53;4.68;;;3.45;;
10347;SDS011;5220;43.192;23.284;2023-10-08T08:51:23;6.50;;;4.22;;
10347;SDS011;5220;43.192;23.284;2023-10-08T08:53:49;8.20;;;4.50;;
10347;SDS011;5220;43.192;23.284;2023-10-08T08:56:19;5.90;;;3.83;;
10347;SDS011;5220;43.192;23.284;2023-10-08T08:58:47;6.00;;;3.78;;
10347;SDS011;5220;43.192;23.284;2023-10-08T09:01:15;7.28;;;4.38;;
10347;SDS011;5220;43.192;23.284;2023-10-08T09:03:43;6.65;;;4.43;;
10347;SDS011;5220;43.192;23.284;2023-10-08T09:06:13;5.03;;;3.53;;
10347;SDS011;5220;43.192;23.284;2023-10-08T09:08:39;6.32;;;3.67;;
10347;SDS011;5220;43.192;23.284;2023-10-08T09:11:13;7.13;;;4.10;;
10347;SDS011;5220;43.192;23.284;2023-10-08T09:13:42;6.90;;;3.88;;
10347;SDS011;5220;43.192;23.284;2023-10-08T09:16:11;7.03;;;4.30;;
10347;SDS011;5220;43.192;23.284;2023-10-08T09:18:41;7.00;;;3.72;;
10347;SDS011;5220;43.192;23.284;2023-10-08T09:21:09;4.07;;;3.50;;
10347;SDS011;5220;43.192;23.284;2023-10-08T09:23:40;5.03;;;3.50;;
10347;SDS011;5220;43.192;23.284;2023-10-08T09:26:09;5.25;;;3.75;;
10347;SDS011;5220;43.192;23.284;2023-10-08T09:28:39;5.80;;;4.13;;
10347;SDS011;5220;43.192;23.284;2023-10-08T09:31:10;11.82;;;3.85;;
10347;SDS011;5220;43.192;23.284;2023-10-08T09:33:37;5.45;;;3.35;;
10347;SDS011;5220;43.192;23.284;2023-10-08T09:36:06;5.38;;;3.40;;
10347;SDS011;5220;43.192;23.284;2023-10-08T09:38:35;4.22;;;3.33;;
10347;SDS011;5220;43.192;23.284;2023-10-08T09:41:03;4.70;;;3.10;;
10347;SDS011;5220;43.192;23.284;2023-10-08T09:43:29;7.38;;;3.60;;
10347;SDS011;5220;43.192;23.284;2023-10-08T09:46:00;6.63;;;3.40;;
10347;SDS011;5220;43.192;23.284;2023-10-08T09:48:37;6.05;;;3.28;;
10347;SDS011;5220;43.192;23.284;2023-10-08T09:51:06;5.03;;;3.78;;
10347;SDS011;5220;43.192;23.284;2023-10-08T09:53:40;3.92;;;2.95;;
10347;SDS011;5220;43.192;23.284;2023-10-08T09:56:14;4.65;;;3.28;;
10347;SDS011;5220;43.192;23.284;2023-10-08T09:58:43;6.25;;;3.35;;
10347;SDS011;5220;43.192;23.284;2023-10-08T10:01:11;9.32;;;3.65;;
10347;SDS011;5220;43.192;23.284;2023-10-08T10:03:39;5.28;;;3.60;;
10347;SDS011;5220;43.192;23.284;2023-10-08T10:06:17;7.28;;;3.35;;
10347;SDS011;5220;43.192;23.284;2023-10-08T10:08:45;7.70;;;2.88;;
10347;SDS011;5220;43.192;23.284;2023-10-08T10:11:14;7.03;;;3.47;;
10347;SDS011;5220;43.192;23.284;2023-10-08T10:13:42;12.77;;;3.58;;
10347;SDS011;5220;43.192;23.284;2023-10-08T10:16:13;6.13;;;3.38;;
10347;SDS011;5220;43.192;23.284;2023-10-08T10:18:44;6.05;;;3.42;;
10347;SDS011;5220;43.192;23.284;2023-10-08T10:21:26;8.60;;;3.30;;
10347;SDS011;5220;43.192;23.284;2023-10-08T10:23:55;7.13;;;3.25;;
10347;SDS011;5220;43.192;23.284;2023-10-08T10:26:24;9.65;;;3.60;;
10347;SDS011;5220;43.192;23.284;2023-10-08T10:31:51;13.85;;;3.78;;
10347;SDS011;5220;43.192;23.284;2023-10-08T10:34:21;11.65;;;3.35;;
10347;SDS011;5220;43.192;23.284;2023-10-08T10:36:52;8.68;;;3.70;;
10347;SDS011;5220;43.192;23.284;2023-10-08T10:39:24;7.85;;;3.25;;
10347;SDS011;5220;43.192;23.284;2023-10-08T10:41:57;10.25;;;3.70;;
10347;SDS011;5220;43.192;23.284;2023-10-08T10:44:28;9.13;;;3.67;;
10347;SDS011;5220;43.192;23.284;2023-10-08T10:46:56;13.55;;;3.40;;
10347;SDS011;5220;43.192;23.284;2023-10-08T10:49:42;8.70;;;3.28;;
10347;SDS011;5220;43.192;23.284;2023-10-08T10:52:17;10.80;;;4.15;;
10347;SDS011;5220;43.192;23.284;2023-10-08T10:54:56;11.60;;;3.08;;
10347;SDS011;5220;43.192;23.284;2023-10-08T10:57:43;8.52;;;3.05;;
10347;SDS011;5220;43.192;23.284;2023-10-08T11:00:19;9.13;;;3.45;;
10347;SDS011;5220;43.192;23.284;2023-10-08T11:03:12;9.57;;;3.63;;
10347;SDS011;5220;43.192;23.284;2023-10-08T11:05:43;9.55;;;3.20;;
10347;SDS011;5220;43.192;23.284;2023-10-08T11:08:16;12.02;;;3.65;;
10347;SDS011;5220;43.192;23.284;2023-10-08T11:10:45;12.68;;;3.10;;
10347;SDS011;5220;43.192;23.284;2023-10-08T11:13:16;12.65;;;3.25;;
10347;SDS011;5220;43.192;23.284;2023-10-08T11:15:44;9.95;;;3.40;;
10347;SDS011;5220;43.192;23.284;2023-10-08T11:18:15;12.60;;;3.38;;
10347;SDS011;5220;43.192;23.284;2023-10-08T11:20:44;9.60;;;3.30;;
10347;SDS011;5220;43.192;23.284;2023-10-08T11:23:11;9.95;;;3.50;;
10347;SDS011;5220;43.192;23.284;2023-10-08T11:25:52;10.90;;;2.78;;
10347;SDS011;5220;43.192;23.284;2023-10-08T11:28:19;18.33;;;3.40;;
10347;SDS011;5220;43.192;23.284;2023-10-08T11:30:47;8.00;;;3.00;;
10347;SDS011;5220;43.192;23.284;2023-10-08T11:33:16;11.77;;;3.60;;
10347;SDS011;5220;43.192;23.284;2023-10-08T11:35:55;16.52;;;3.30;;
10347;SDS011;5220;43.192;23.284;2023-10-08T11:38:28;11.98;;;3.38;;
10347;SDS011;5220;43.192;23.284;2023-10-08T11:41:11;12.38;;;3.95;;
10347;SDS011;5220;43.192;23.284;2023-10-08T11:43:46;8.40;;;2.70;;
10347;SDS011;5220;43.192;23.284;2023-10-08T11:46:18;9.70;;;3.53;;
10347;SDS011;5220;43.192;23.284;2023-10-08T11:48:51;11.15;;;3.50;;
10347;SDS011;5220;43.192;23.284;2023-10-08T11:51:19;17.42;;;3.83;;
10347;SDS011;5220;43.192;23.284;2023-10-08T11:53:49;5.65;;;3.03;;
10347;SDS011;5220;43.192;23.284;2023-10-08T11:56:16;11.27;;;3.38;;
10347;SDS011;5220;43.192;23.284;2023-10-08T11:58:47;12.25;;;4.03;;
10347;SDS011;5220;43.192;23.284;2023-10-08T12:01:14;12.57;;;3.47;;
10347;SDS011;5220;43.192;23.284;2023-10-08T12:03:43;14.45;;;3.47;;
10347;SDS011;5220;43.192;23.284;2023-10-08T12:06:10;11.05;;;3.28;;
10347;SDS011;5220;43.192;23.284;2023-10-08T12:08:42;14.15;;;3.28;;
10347;SDS011;5220;43.192;23.284;2023-10-08T12:11:11;8.73;;;2.85;;
10347;SDS011;5220;43.192;23.284;2023-10-08T12:13:39;9.35;;;2.85;;
10347;SDS011;5220;43.192;23.284;2023-10-08T12:16:10;11.68;;;3.90;;
10347;SDS011;5220;43.192;23.284;2023-10-08T12:18:43;11.13;;;3.28;;
10347;SDS011;5220;43.192;23.284;2023-10-08T12:21:18;16.73;;;3.60;;
10347;SDS011;5220;43.192;23.284;2023-10-08T12:23:46;7.50;;;3.38;;
10347;SDS011;5220;43.192;23.284;2023-10-08T12:26:15;13.98;;;3.80;;
10347;SDS011;5220;43.192;23.284;2023-10-08T12:28:44;31.02;;;23.17;;
10347;SDS011;5220;43.192;23.284;2023-10-08T12:31:11;14.10;;;5.00;;
10347;SDS011;5220;43.192;23.284;2023-10-08T12:33:40;11.65;;;4.43;;
10347;SDS011;5220;43.192;23.284;2023-10-08T12:36:08;14.75;;;4.75;;
10347;SDS011;5220;43.192;23.284;2023-10-08T12:38:41;7.95;;;3.13;;
10347;SDS011;5220;43.192;23.284;2023-10-08T12:41:10;14.20;;;3.92;;
10347;SDS011;5220;43.192;23.284;2023-10-08T12:43:44;10.63;;;3.35;;
10347;SDS011;5220;43.192;23.284;2023-10-08T12:46:11;15.70;;;3.78;;
10347;SDS011;5220;43.192;23.284;2023-10-08T12:48:43;8.70;;;4.10;;
10347;SDS011;5220;43.192;23.284;2023-10-08T12:51:13;11.65;;;3.35;;
10347;SDS011;5220;43.192;23.284;2023-10-08T12:53:41;16.05;;;3.83;;
10347;SDS011;5220;43.192;23.284;2023-10-08T12:56:17;11.90;;;3.15;;
10347;SDS011;5220;43.192;23.284;2023-10-08T12:58:46;11.32;;;3.80;;
10347;SDS011;5220;43.192;23.284;2023-10-08T13:01:14;9.40;;;3.20;;
10347;SDS011;5220;43.192;23.284;2023-10-08T13:03:42;15.35;;;3.58;;
10347;SDS011;5220;43.192;23.284;2023-10-08T13:06:13;16.33;;;4.25;;
10347;SDS011;5220;43.192;23.284;2023-10-08T13:08:47;14.70;;;3.03;;
10347;SDS011;5220;43.192;23.284;2023-10-08T13:11:14;9.45;;;3.47;;
10347;SDS011;5220;43.192;23.284;2023-10-08T13:13:42;11.98;;;3.03;;
10347;SDS011;5220;43.192;23.284;2023-10-08T13:16:10;13.02;;;3.25;;
10347;SDS011;5220;43.192;23.284;2023-10-08T13:18:36;7.32;;;3.00;;
10347;SDS011;5220;43.192;23.284;2023-10-08T13:21:03;13.85;;;3.30;;
10347;SDS011;5220;43.192;23.284;2023-10-08T13:23:31;8.10;;;2.92;;
10347;SDS011;5220;43.192;23.284;2023-10-08T13:26:00;11.98;;;2.75;;
10347;SDS011;5220;43.192;23.284;2023-10-08T13:28:29;11.75;;;3.30;;
10347;SDS011;5220;43.192;23.284;2023-10-08T13:31:00;16.42;;;3.55;;
10347;SDS011;5220;43.192;23.284;2023-10-08T13:33:34;11.23;;;3.53;;
10347;SDS011;5220;43.192;23.284;2023-10-08T13:36:01;9.23;;;3.17;;
10347;SDS011;5220;43.192;23.284;2023-10-08T13:38:28;10.48;;;3.22;;
10347;SDS011;5220;43.192;23.284;2023-10-08T13:40:54;16.83;;;4.05;;
10347;SDS011;5220;43.192;23.284;2023-10-08T13:43:31;6.13;;;3.03;;
10347;SDS011;5220;43.192;23.284;2023-10-08T13:46:03;8.88;;;3.08;;
10347;SDS011;5220;43.192;23.284;2023-10-08T13:48:32;14.80;;;4.00;;
10347;SDS011;5220;43.192;23.284;2023-10-08T13:51:01;6.10;;;2.70;;
10347;SDS011;5220;43.192;23.284;2023-10-08T13:53:29;10.85;;;3.22;;
10347;SDS011;5220;43.192;23.284;2023-10-08T13:55:57;10.52;;;3.30;;
10347;SDS011;5220;43.192;23.284;2023-10-08T13:58:26;9.93;;;3.63;;
10347;SDS011;5220;43.192;23.284;2023-10-08T14:00:55;12.93;;;4.30;;
10347;SDS011;5220;43.192;23.284;2023-10-08T14:03:23;12.63;;;3.35;;
10347;SDS011;5220;43.192;23.284;2023-10-08T14:05:50;13.80;;;3.30;;
10347;SDS011;5220;43.192;23.284;2023-10-08T14:08:17;9.40;;;3.72;;
10347;SDS011;5220;43.192;23.284;2023-10-08T14:10:44;11.10;;;3.70;;
10347;SDS011;5220;43.192;23.284;2023-10-08T14:13:14;9.25;;;3.08;;
10347;SDS011;5220;43.192;23.284;2023-10-08T14:15:45;11.43;;;3.97;;
10347;SDS011;5220;43.192;23.284;2023-10-08T14:18:14;13.60;;;3.35;;
10347;SDS011;5220;43.192;23.284;2023-10-08T14:20:44;9.80;;;3.58;;
10347;SDS011;5220;43.192;23.284;2023-10-08T14:23:18;11.40;;;3.97;;
10347;SDS011;5220;43.192;23.284;2023-10-08T14:25:47;7.75;;;3.15;;
10347;SDS011;5220;43.192;23.284;2023-10-08T14:28:16;9.65;;;2.70;;
10347;SDS011;5220;43.192;23.284;2023-10-08T14:30:51;7.25;;;3.53;;
10347;SDS011;5220;43.192;23.284;2023-10-08T14:33:21;12.57;;;3.50;;
10347;SDS011;5220;43.192;23.284;2023-10-08T14:35:53;19.13;;;4.13;;
10347;SDS011;5220;43.192;23.284;2023-10-08T14:38:37;9.32;;;3.50;;
10347;SDS011;5220;43.192;23.284;2023-10-08T14:41:21;8.15;;;3.20;;
10347;SDS011;5220;43.192;23.284;2023-10-08T14:44:05;9.27;;;3.28;;
10347;SDS011;5220;43.192;23.284;2023-10-08T14:46:32;11.85;;;3.17;;
10347;SDS011;5220;43.192;23.284;2023-10-08T14:49:02;13.27;;;3.63;;
10347;SDS011;5220;43.192;23.284;2023-10-08T14:51:36;9.52;;;3.25;;
10347;SDS011;5220;43.192;23.284;2023-10-08T14:54:05;8.35;;;3.38;;
10347;SDS011;5220;43.192;23.284;2023-10-08T14:56:33;8.15;;;3.38;;
10347;SDS011;5220;43.192;23.284;2023-10-08T14:59:00;9.35;;;3.13;;
10347;SDS011;5220;43.192;23.284;2023-10-08T15:01:28;9.07;;;3.22;;
10347;SDS011;5220;43.192;23.284;2023-10-08T15:03:58;8.70;;;3.05;;
10347;SDS011;5220;43.192;23.284;2023-10-08T15:06:29;12.13;;;3.42;;
10347;SDS011;5220;43.192;23.284;2023-10-08T15:08:57;13.00;;;3.42;;
10347;SDS011;5220;43.192;23.284;2023-10-08T15:11:25;9.52;;;3.40;;
10347;SDS011;5220;43.192;23.284;2023-10-08T15:13:55;8.55;;;3.35;;